Lansing, New York
Current Conditions -  °F | °C
As of 7:56 AM on Thursday 23 Oct 2014 (Local Time) from KITH Reporting Station
Overcast Overcast  
Wind Chill: 39°   Ceiling: 1200
Heat Index: 44°   Visibility: 10mi
Dew Point: 40°   Wind: 9mph
Humidity: 86%   Direction: 350°N
Pressure: 29.99"   Gusts: NA
Location:  42.48°N, 76.48°W
Report Text: KITH 231156Z 35008KT 10SM OVC012 07/04 A2999 RMK AO2 58001 T00660044 10072 20055 SLP161
Loading
Personal Weather Stations






























Interactive Weather Map
Tropical Storm Tracking
New forecast layout! Learn more

10-Day Weather Forecast

Advertisements
Track Severe Weather on mobile